Ukiah, CA (95418)

1:48 PM PST on February 14, 2016 (GMT -0800)
Westside | | Change Station
CLOSE
Current Station
Personal Weather Station
Location: Ukiah, CA
Elevation: 673 ft
Nearby Weather Stations

Elev 673 ft 39.14 °N, 123.21 °W | Updated 1 minute ago

Clear
Clear
74.5 °F
Feels Like 77 °F
N
4.7
Wind Variable Wind from WNW

Today
High -- | Low -- °F
--% Chance of Precip.
Yesterday
High -- | Low -- °F
Precip. -- in
Pressure 30.28 in
Visibility 10.0 miles
Clouds Clear
Heat Index 77 °F
Dew Point 52 °F
Humidity 45%
Rainfall 0.00 in
Snow Depth Not available.
7:06 AM 5:48 PM
Waxing Crescent, 45% visible
METAR KUKI 142056Z AUTO 32015G21KT 10SM CLR 22/11 A3030 RMK AO2 SLP254 T02220106 58024
Pressure 30.28 in
Visibility 10.0 miles
Clouds Clear
Heat Index 77 °F
Dew Point 52 °F
Humidity 45%
Rainfall 0.00 in
Snow Depth Not available.
7:06 AM 5:48 PM
Waxing Crescent, 45% visible
METAR KUKI 142056Z AUTO 32015G21KT 10SM CLR 22/11 A3030 RMK AO2 SLP254 T02220106 58024

10-Day Weather Forecast

Almanac

Astronomy

Feb. 14, 2016 Rise Set
Actual Time
Civil Twilight
Nautical Twilight
Astronomical Twilight
Moon
Length of Visible Light
Length of Day
Tomorrow will be .
, % of the Moon is Illuminated

Today's Extremes

State Highs State Lows

Community

WunderPhotos

Upload Photos

1,892,890 photos uploaded!

WunderBlog® & News

Nearby

Air Quality

  Air Quality AQ Index Pollutant
Not available.

Snow Depth

Station Depth Elevation

Earthquake Activity

City Distance Mag. Time & Date
Minimum magnitude displayed is 2.5.

Coastal Water Temperatures

Place Temperature

Stations

Nearby Weather Stations

Station Location Temp. Windchill Dew Point Humidity Wind Precip. Elev Updated Type
                   

Watches & Warnings

There are currently no watches in effect.